createdAt,value
2018-12-16T00:00:59.707Z,22.77
2018-12-16T00:03:31.072Z,22.77
2018-12-16T00:06:02.529Z,22.77
2018-12-16T00:08:31.858Z,22.77
2018-12-16T00:11:01.508Z,22.76
2018-12-16T00:13:30.870Z,22.70
2018-12-16T00:16:00.215Z,22.76
2018-12-16T00:18:29.572Z,22.75
2018-12-16T00:20:58.909Z,22.75
2018-12-16T00:23:28.269Z,22.75
2018-12-16T00:25:57.612Z,22.74
2018-12-16T00:28:26.980Z,22.75
2018-12-16T00:30:56.311Z,22.74
2018-12-16T00:33:25.678Z,22.72
2018-12-16T00:35:55.009Z,22.71
2018-12-16T00:38:24.368Z,22.72
2018-12-16T00:40:53.713Z,22.71
2018-12-16T00:43:23.103Z,22.72
2018-12-16T00:45:52.443Z,22.67
2018-12-16T00:48:21.903Z,22.63
2018-12-16T00:50:51.243Z,22.64
2018-12-16T00:53:20.607Z,22.64
2018-12-16T00:55:50.415Z,22.62
2018-12-16T00:58:19.777Z,22.61
2018-12-16T01:00:49.105Z,22.62
2018-12-16T01:03:19.507Z,22.61
2018-12-16T01:05:48.845Z,22.68
2018-12-16T01:08:18.187Z,22.72
2018-12-16T01:10:47.517Z,22.71
2018-12-16T01:13:16.839Z,22.71
2018-12-16T01:15:46.212Z,22.71
2018-12-16T01:18:15.539Z,22.71
2018-12-16T01:20:44.873Z,22.71
2018-12-16T01:23:14.221Z,22.72
2018-12-16T01:25:43.579Z,22.71
2018-12-16T01:28:12.905Z,22.72
2018-12-16T01:30:42.272Z,22.70
2018-12-16T01:33:11.622Z,22.69
2018-12-16T01:35:41.095Z,22.69
2018-12-16T01:38:10.443Z,22.69
2018-12-16T01:40:39.810Z,22.69
2018-12-16T01:43:09.156Z,22.70
2018-12-16T01:45:38.520Z,22.70
2018-12-16T01:48:07.860Z,22.69
2018-12-16T01:50:37.217Z,22.70
2018-12-16T01:53:06.555Z,22.67
2018-12-16T01:55:35.920Z,22.68
2018-12-16T01:58:05.268Z,22.68
2018-12-16T02:00:34.641Z,22.70
2018-12-16T02:03:03.975Z,22.69
2018-12-16T02:05:33.632Z,22.69
2018-12-16T02:08:02.968Z,22.66
2018-12-16T02:10:32.296Z,22.68
2018-12-16T02:13:01.640Z,22.67
2018-12-16T02:15:30.988Z,22.68
2018-12-16T02:18:00.324Z,22.67
2018-12-16T02:20:30.404Z,22.64
2018-12-16T02:22:59.770Z,22.65
2018-12-16T02:25:29.109Z,22.66
2018-12-16T02:27:59.425Z,22.65
2018-12-16T02:30:28.773Z,22.65
2018-12-16T02:32:58.159Z,22.65
2018-12-16T02:35:27.502Z,22.64
2018-12-16T02:37:56.823Z,22.64
2018-12-16T02:40:26.177Z,22.62
2018-12-16T02:42:55.517Z,22.64
2018-12-16T02:45:24.849Z,22.62
2018-12-16T02:47:54.191Z,22.62
2018-12-16T02:50:23.515Z,22.62
2018-12-16T02:52:52.955Z,22.61
2018-12-16T02:55:22.298Z,22.61
2018-12-16T02:57:51.650Z,22.61
2018-12-16T03:00:21.008Z,22.59
2018-12-16T03:02:50.376Z,22.59
2018-12-16T03:05:19.777Z,22.59
2018-12-16T03:07:49.191Z,22.58
2018-12-16T03:10:18.536Z,22.59
2018-12-16T03:12:48.067Z,22.58
2018-12-16T03:15:17.419Z,22.57
2018-12-16T03:17:46.745Z,22.58
2018-12-16T03:20:16.084Z,22.57
2018-12-16T03:22:45.426Z,22.57
2018-12-16T03:25:14.801Z,22.57
2018-12-16T03:27:44.260Z,22.56
2018-12-16T03:30:13.636Z,22.58
2018-12-16T03:32:42.969Z,22.56
2018-12-16T03:35:12.336Z,22.55
2018-12-16T03:37:41.720Z,22.56
2018-12-16T03:40:11.081Z,22.55
2018-12-16T03:42:41.547Z,22.56
2018-12-16T03:45:10.909Z,22.57
2018-12-16T03:47:40.349Z,22.55
2018-12-16T03:50:09.714Z,22.56
2018-12-16T03:52:39.048Z,22.55
2018-12-16T03:55:08.427Z,22.54
2018-12-16T03:57:37.753Z,22.54
2018-12-16T04:00:07.171Z,22.54
2018-12-16T04:02:36.514Z,22.53
2018-12-16T04:05:06.075Z,22.53
2018-12-16T04:07:35.423Z,22.53
2018-12-16T04:10:05.900Z,22.52
2018-12-16T04:12:35.292Z,22.53
2018-12-16T04:15:05.210Z,22.52
2018-12-16T04:17:34.637Z,22.52
2018-12-16T04:20:04.016Z,22.51
2018-12-16T04:22:33.356Z,22.50
2018-12-16T04:25:02.716Z,22.51
2018-12-16T04:27:32.049Z,22.51
2018-12-16T04:30:01.389Z,22.50
2018-12-16T04:32:31.749Z,22.50
2018-12-16T04:35:01.081Z,22.50
2018-12-16T04:37:30.428Z,22.49
2018-12-16T04:39:59.908Z,22.49
2018-12-16T04:42:29.259Z,22.49
2018-12-16T04:44:58.605Z,22.50
2018-12-16T04:47:27.980Z,22.50
2018-12-16T04:49:57.312Z,22.50
2018-12-16T04:52:26.678Z,22.50
2018-12-16T04:54:56.024Z,22.48
2018-12-16T04:57:25.397Z,22.48
2018-12-16T04:59:54.748Z,22.47
2018-12-16T05:02:24.194Z,22.49
2018-12-16T05:04:53.572Z,22.49
2018-12-16T05:07:22.916Z,22.47
2018-12-16T05:09:52.276Z,22.48
2018-12-16T05:14:56.457Z,22.46
2018-12-16T05:17:25.832Z,22.44
2018-12-16T05:19:55.169Z,22.45
2018-12-16T05:22:24.528Z,22.46
2018-12-16T05:24:53.878Z,22.46
2018-12-16T05:27:23.364Z,22.44
2018-12-16T05:29:52.691Z,22.44
2018-12-16T05:32:22.080Z,22.44
2018-12-16T05:34:51.411Z,22.43
2018-12-16T05:37:20.737Z,22.43
2018-12-16T05:39:50.094Z,22.45
2018-12-16T05:42:19.427Z,22.44
2018-12-16T05:44:48.783Z,22.44
2018-12-16T05:47:18.112Z,22.43
2018-12-16T05:49:47.906Z,22.43
2018-12-16T05:52:17.264Z,22.44
2018-12-16T05:54:46.607Z,22.43
2018-12-16T05:57:15.941Z,22.43
2018-12-16T05:59:45.286Z,22.42
2018-12-16T06:02:14.642Z,22.43
2018-12-16T06:04:43.977Z,22.42
2018-12-16T06:07:13.292Z,22.43
2018-12-16T06:09:42.727Z,22.43
2018-12-16T06:12:12.062Z,22.44
2018-12-16T06:14:41.439Z,22.42
2018-12-16T06:17:10.781Z,22.42
2018-12-16T06:19:40.241Z,22.43
2018-12-16T06:22:09.592Z,22.43
2018-12-16T06:24:38.980Z,22.43
2018-12-16T06:27:08.309Z,22.42
2018-12-16T06:29:38.523Z,22.42
2018-12-16T06:32:07.861Z,22.42
2018-12-16T06:34:37.228Z,22.42
2018-12-16T06:37:06.580Z,22.43
2018-12-16T06:39:35.916Z,22.43
2018-12-16T06:42:05.279Z,22.42
2018-12-16T06:44:34.615Z,22.43
2018-12-16T06:47:03.960Z,22.44
2018-12-16T06:49:33.311Z,22.44
2018-12-16T06:52:02.676Z,22.44
2018-12-16T06:54:31.991Z,22.43
2018-12-16T06:57:01.338Z,22.44
2018-12-16T06:59:30.692Z,22.44
2018-12-16T07:02:01.151Z,22.47
2018-12-16T07:04:31.601Z,22.47
2018-12-16T07:07:00.949Z,22.48
2018-12-16T07:09:30.280Z,22.47
2018-12-16T07:11:59.649Z,22.48
2018-12-16T07:14:29.007Z,22.48
2018-12-16T07:16:58.378Z,22.48
2018-12-16T07:19:27.713Z,22.48
2018-12-16T07:21:57.093Z,22.48
2018-12-16T07:24:26.446Z,22.48
2018-12-16T07:26:55.788Z,22.50
2018-12-16T07:29:25.123Z,22.50
2018-12-16T07:31:54.509Z,22.51
2018-12-16T07:34:23.844Z,22.51
2018-12-16T07:36:53.206Z,22.51
2018-12-16T07:39:22.529Z,22.53
2018-12-16T07:41:51.915Z,22.54
2018-12-16T07:44:21.331Z,22.55
2018-12-16T07:46:50.721Z,22.53
2018-12-16T07:49:20.059Z,22.54
2018-12-16T07:51:49.612Z,22.54
2018-12-16T07:54:18.974Z,22.55
2018-12-16T07:56:48.307Z,22.56
2018-12-16T07:59:17.664Z,22.56
2018-12-16T08:01:46.991Z,22.56
2018-12-16T08:04:16.342Z,22.57
2018-12-16T08:06:45.679Z,22.57
2018-12-16T08:09:15.020Z,22.58
2018-12-16T08:11:44.356Z,22.57
2018-12-16T08:14:13.723Z,22.59
2018-12-16T08:16:43.060Z,22.60
2018-12-16T08:19:12.576Z,22.61
2018-12-16T08:21:41.939Z,22.60
2018-12-16T08:24:11.335Z,22.60
2018-12-16T08:26:40.829Z,22.62
2018-12-16T08:29:10.196Z,22.63
2018-12-16T08:31:39.637Z,22.68
2018-12-16T08:34:09.030Z,22.74
2018-12-16T08:36:38.588Z,22.71
2018-12-16T08:39:08.328Z,22.60
2018-12-16T08:41:38.832Z,22.56
2018-12-16T08:44:08.224Z,22.55
2018-12-16T08:46:37.553Z,22.54
2018-12-16T08:49:07.601Z,22.50
2018-12-16T08:51:36.961Z,22.49
2018-12-16T08:54:06.340Z,22.50
2018-12-16T08:56:35.716Z,22.49
2018-12-16T08:59:05.051Z,22.51
2018-12-16T09:01:35.075Z,22.55
2018-12-16T09:04:04.656Z,22.55
2018-12-16T09:06:35.863Z,22.57
2018-12-16T09:09:08.085Z,22.42
2018-12-16T09:11:37.468Z,21.90
2018-12-16T09:14:06.844Z,21.47
2018-12-16T09:19:04.276Z,20.93
2018-12-16T09:21:33.704Z,20.98
2018-12-16T09:24:03.071Z,21.11
2018-12-16T09:26:32.432Z,21.24
2018-12-16T09:29:01.784Z,21.31
2018-12-16T09:31:31.192Z,21.37
2018-12-16T09:34:00.571Z,21.46
2018-12-16T09:36:29.907Z,21.50
2018-12-16T09:38:59.320Z,21.59
2018-12-16T09:41:29.744Z,21.64
2018-12-16T09:43:59.108Z,21.69
2018-12-16T09:46:29.983Z,21.73
2018-12-16T09:48:59.576Z,21.77
2018-12-16T09:51:29.032Z,21.83
2018-12-16T09:53:58.372Z,21.87
2018-12-16T09:56:27.713Z,21.89
2018-12-16T09:58:57.078Z,21.93
2018-12-16T10:01:26.455Z,21.96
2018-12-16T10:03:55.835Z,21.97
2018-12-16T10:06:25.325Z,22.01
2018-12-16T10:08:54.704Z,22.04
2018-12-16T10:11:24.087Z,22.06
2018-12-16T10:13:53.470Z,22.09
2018-12-16T10:16:22.796Z,22.11
2018-12-16T10:18:52.189Z,22.13
2018-12-16T10:21:21.535Z,22.15
2018-12-16T10:23:50.904Z,22.17
2018-12-16T10:26:20.292Z,22.16
2018-12-16T10:28:49.637Z,22.19
2018-12-16T10:31:18.997Z,22.21
2018-12-16T10:33:48.469Z,22.21
2018-12-16T10:36:17.797Z,22.23
2018-12-16T10:38:47.191Z,22.26
2018-12-16T10:41:16.589Z,22.26
2018-12-16T10:43:45.954Z,22.29
2018-12-16T10:46:15.297Z,22.29
2018-12-16T10:48:44.646Z,22.27
2018-12-16T10:51:14.004Z,22.26
2018-12-16T10:53:43.383Z,22.26
2018-12-16T10:56:12.987Z,22.29
2018-12-16T10:58:42.338Z,22.29
2018-12-16T11:01:16.887Z,22.29
2018-12-16T11:03:46.525Z,22.31
2018-12-16T11:06:15.858Z,22.34
2018-12-16T11:08:45.770Z,22.34
2018-12-16T11:11:15.140Z,22.36
2018-12-16T11:13:44.498Z,22.36
2018-12-16T11:16:13.877Z,22.38
2018-12-16T11:18:43.220Z,22.40
2018-12-16T11:21:12.596Z,22.40
2018-12-16T11:23:42.021Z,22.41
2018-12-16T11:26:12.615Z,22.42
2018-12-16T11:28:41.957Z,22.43
2018-12-16T11:31:11.330Z,22.45
2018-12-16T11:33:40.676Z,22.45
2018-12-16T11:36:10.040Z,22.46
2018-12-16T11:38:39.380Z,22.47
2018-12-16T11:41:08.708Z,22.49
2018-12-16T11:43:38.051Z,22.50
2018-12-16T11:46:07.402Z,22.52
2018-12-16T11:48:36.775Z,22.51
2018-12-16T11:51:06.115Z,22.52
2018-12-16T11:53:36.511Z,22.52
2018-12-16T11:56:05.840Z,22.53
2018-12-16T11:58:35.200Z,22.56
2018-12-16T12:01:04.583Z,22.55
2018-12-16T12:03:34.301Z,22.55
2018-12-16T12:06:05.679Z,22.56
2018-12-16T12:08:35.036Z,22.56
2018-12-16T12:11:04.383Z,22.57
2018-12-16T12:13:33.724Z,22.58
2018-12-16T12:16:03.079Z,22.58
2018-12-16T12:18:32.408Z,22.59
2018-12-16T12:21:01.773Z,22.60
2018-12-16T12:23:31.104Z,22.61
2018-12-16T12:26:00.554Z,22.61
2018-12-16T12:28:30.241Z,22.61
2018-12-16T12:30:59.851Z,22.61
2018-12-16T12:33:29.171Z,22.61
2018-12-16T12:35:58.516Z,22.62
2018-12-16T12:38:27.845Z,22.62
2018-12-16T12:40:57.220Z,22.62
2018-12-16T12:43:26.579Z,22.62
2018-12-16T12:45:55.964Z,22.62
2018-12-16T12:48:25.304Z,22.63
2018-12-16T12:50:54.665Z,22.64
2018-12-16T12:53:24.012Z,22.64
2018-12-16T12:55:53.704Z,22.63
2018-12-16T12:58:23.093Z,22.64
2018-12-16T13:00:52.466Z,22.65
2018-12-16T13:03:21.796Z,22.66
2018-12-16T13:05:51.174Z,22.65
2018-12-16T13:08:21.858Z,22.66
2018-12-16T13:10:51.417Z,22.66
2018-12-16T13:13:20.740Z,22.66
2018-12-16T13:15:50.100Z,22.66
2018-12-16T13:18:19.446Z,22.66
2018-12-16T13:20:48.769Z,22.67
2018-12-16T13:23:18.166Z,22.64
2018-12-16T13:25:58.576Z,22.62
2018-12-16T13:28:27.973Z,22.61
2018-12-16T13:30:57.391Z,22.58
2018-12-16T13:33:26.908Z,22.61
2018-12-16T13:35:56.448Z,22.61
2018-12-16T13:38:26.686Z,22.61
2018-12-16T13:40:56.747Z,22.60
2018-12-16T13:43:26.436Z,22.61
2018-12-16T13:45:56.324Z,22.61
2018-12-16T13:48:26.288Z,22.62
2018-12-16T13:50:56.062Z,22.62
2018-12-16T13:53:26.152Z,22.63
2018-12-16T13:55:56.244Z,22.63
2018-12-16T13:58:26.180Z,22.64
2018-12-16T14:00:55.828Z,22.65
2018-12-16T14:03:25.937Z,22.66
2018-12-16T14:05:55.632Z,22.65
2018-12-16T14:08:25.810Z,22.66
2018-12-16T14:10:56.000Z,22.67
2018-12-16T14:13:25.733Z,22.66
2018-12-16T14:15:55.462Z,22.66
2018-12-16T14:18:25.004Z,22.66
2018-12-16T14:20:54.458Z,22.67
2018-12-16T14:23:23.897Z,22.69
2018-12-16T14:25:54.444Z,22.68
2018-12-16T14:28:24.107Z,22.67
2018-12-16T14:30:53.529Z,22.67
2018-12-16T14:33:23.779Z,22.67
2018-12-16T14:35:53.144Z,22.68
2018-12-16T14:38:23.203Z,22.69
2018-12-16T14:40:52.947Z,22.65
2018-12-16T14:43:22.878Z,22.70
2018-12-16T14:45:53.462Z,22.73
2018-12-16T14:48:23.267Z,22.72
2018-12-16T14:50:52.953Z,22.81
2018-12-16T14:53:22.428Z,22.81
2018-12-16T14:55:55.215Z,22.82
2018-12-16T14:58:23.915Z,22.81
2018-12-16T15:00:53.872Z,22.81
2018-12-16T15:03:23.373Z,22.80
2018-12-16T15:05:53.053Z,22.80
2018-12-16T15:08:22.741Z,22.81
2018-12-16T15:10:52.401Z,22.80
2018-12-16T15:13:21.875Z,22.78
2018-12-16T15:15:51.264Z,22.79
2018-12-16T15:18:20.617Z,22.78
2018-12-16T15:20:49.995Z,22.80
2018-12-16T15:23:19.346Z,22.81
2018-12-16T15:25:48.821Z,22.81
2018-12-16T15:28:18.439Z,22.82
2018-12-16T15:30:48.383Z,22.81
2018-12-16T15:33:17.752Z,22.83
2018-12-16T15:35:47.136Z,22.83
2018-12-16T15:38:16.481Z,22.83
2018-12-16T15:40:45.899Z,22.83
2018-12-16T15:43:15.359Z,22.83
2018-12-16T15:45:44.981Z,22.84
2018-12-16T15:48:14.823Z,22.85
2018-12-16T15:50:45.048Z,22.86
2018-12-16T15:53:14.779Z,22.88
2018-12-16T15:55:44.337Z,22.90
2018-12-16T15:58:14.176Z,22.91
2018-12-16T16:00:44.659Z,22.89
2018-12-16T16:03:14.495Z,22.91
2018-12-16T16:05:44.576Z,22.92
2018-12-16T16:08:16.535Z,22.93
2018-12-16T16:10:53.063Z,22.95
2018-12-16T16:13:22.845Z,22.96
2018-12-16T16:15:52.302Z,22.97
2018-12-16T16:18:21.685Z,22.97
2018-12-16T16:20:51.187Z,22.98
2018-12-16T16:23:20.638Z,22.99
2018-12-16T16:25:50.037Z,23.01
2018-12-16T16:28:19.608Z,23.01
2018-12-16T16:30:49.166Z,22.96
2018-12-16T16:33:19.821Z,23.02
2018-12-16T16:35:49.441Z,23.02
2018-12-16T16:38:18.879Z,23.03
2018-12-16T16:40:48.827Z,23.04
2018-12-16T16:43:18.261Z,23.05
2018-12-16T16:45:47.796Z,23.05
2018-12-16T16:48:17.416Z,23.06
2018-12-16T16:50:47.079Z,23.07
2018-12-16T16:53:16.565Z,23.07
2018-12-16T16:55:46.178Z,23.08
2018-12-16T16:58:15.846Z,23.08
2018-12-16T17:00:45.387Z,23.09
2018-12-16T17:03:15.053Z,23.08
2018-12-16T17:05:44.651Z,23.11
2018-12-16T17:08:14.786Z,23.13
2018-12-16T17:10:45.249Z,23.13
2018-12-16T17:13:14.834Z,23.15
2018-12-16T17:15:44.468Z,23.15
2018-12-16T17:18:13.978Z,23.16
2018-12-16T17:20:43.815Z,23.16
2018-12-16T17:23:13.678Z,23.17
2018-12-16T17:25:48.206Z,23.20
2018-12-16T17:28:15.520Z,23.19
2018-12-16T17:30:47.494Z,23.20
2018-12-16T17:33:16.967Z,23.23
2018-12-16T17:35:46.396Z,23.24
2018-12-16T17:38:15.816Z,23.24
2018-12-16T17:40:45.224Z,23.24
2018-12-16T17:43:15.128Z,23.25
2018-12-16T17:45:44.497Z,23.26
2018-12-16T17:48:13.903Z,23.27
2018-12-16T17:50:43.347Z,23.26
2018-12-16T17:53:12.732Z,23.28
2018-12-16T17:55:42.330Z,23.29
2018-12-16T17:58:11.693Z,23.30
2018-12-16T18:00:42.122Z,23.30
2018-12-16T18:03:11.494Z,23.29
2018-12-16T18:05:41.430Z,23.31
2018-12-16T18:08:10.831Z,23.31
2018-12-16T18:10:40.209Z,23.31
2018-12-16T18:13:10.196Z,23.32
2018-12-16T18:15:39.655Z,23.33
2018-12-16T18:18:09.593Z,23.31
2018-12-16T18:20:38.955Z,23.32
2018-12-16T18:23:08.671Z,23.34
2018-12-16T18:25:38.031Z,23.34
2018-12-16T18:28:07.461Z,23.35
2018-12-16T18:30:36.816Z,23.35
2018-12-16T18:33:06.355Z,23.36
2018-12-16T18:35:35.743Z,23.36
2018-12-16T18:38:05.463Z,23.38
2018-12-16T18:40:37.930Z,23.38
2018-12-16T18:43:07.386Z,23.37
2018-12-16T18:45:36.740Z,23.37
2018-12-16T18:48:06.139Z,23.37
2018-12-16T18:50:35.544Z,23.37
2018-12-16T18:53:04.947Z,23.38
2018-12-16T18:55:34.357Z,23.38
2018-12-16T18:58:03.765Z,23.38
2018-12-16T19:00:33.144Z,23.38
2018-12-16T19:03:02.533Z,23.38
2018-12-16T19:05:31.916Z,23.39
2018-12-16T19:08:02.348Z,23.39
2018-12-16T19:10:31.778Z,23.40
2018-12-16T19:13:01.223Z,23.41
2018-12-16T19:15:31.833Z,23.42
2018-12-16T19:18:01.233Z,23.41
2018-12-16T19:20:30.633Z,23.41
2018-12-16T19:23:00.030Z,23.40
2018-12-16T19:25:29.393Z,23.40
2018-12-16T19:27:58.776Z,23.41
2018-12-16T19:30:28.141Z,23.41
2018-12-16T19:32:57.508Z,23.40
2018-12-16T19:35:27.940Z,23.44
2018-12-16T19:37:57.364Z,23.45
2018-12-16T19:40:27.092Z,23.44
2018-12-16T19:42:56.508Z,23.43
2018-12-16T19:45:25.922Z,23.42
2018-12-16T19:47:55.284Z,23.42
2018-12-16T19:50:24.642Z,23.39
2018-12-16T19:52:54.020Z,23.39
2018-12-16T19:55:24.659Z,23.38
2018-12-16T19:57:54.045Z,23.38
2018-12-16T20:00:23.459Z,23.39
2018-12-16T20:02:52.823Z,23.40
2018-12-16T20:05:23.653Z,23.40
2018-12-16T20:07:53.196Z,23.40
2018-12-16T20:10:22.627Z,23.38
2018-12-16T20:12:52.084Z,23.39
2018-12-16T20:15:21.552Z,23.38
2018-12-16T20:17:51.019Z,23.38
2018-12-16T20:20:20.555Z,23.38
2018-12-16T20:22:50.105Z,23.38
2018-12-16T20:25:19.600Z,23.39
2018-12-16T20:27:49.103Z,23.40
2018-12-16T20:30:18.622Z,23.37
2018-12-16T20:32:48.117Z,23.36
2018-12-16T20:35:17.833Z,23.36
2018-12-16T20:37:47.871Z,23.36
2018-12-16T20:40:17.284Z,23.37
2018-12-16T20:42:46.924Z,23.37
2018-12-16T20:45:16.253Z,23.39
2018-12-16T20:47:45.655Z,23.40
2018-12-16T20:50:15.010Z,23.39
2018-12-16T20:52:44.404Z,23.40
2018-12-16T20:55:13.741Z,23.41
2018-12-16T20:57:43.220Z,23.44
2018-12-16T21:00:12.605Z,23.45
2018-12-16T21:02:41.972Z,23.45
2018-12-16T21:05:11.314Z,23.48
2018-12-16T21:07:40.684Z,23.48
2018-12-16T21:10:10.032Z,23.48
2018-12-16T21:12:44.423Z,23.48
2018-12-16T21:15:18.938Z,23.48
2018-12-16T21:17:53.444Z,23.48
2018-12-16T21:20:22.948Z,23.48
2018-12-16T21:22:52.277Z,23.49
2018-12-16T21:25:21.629Z,23.49
2018-12-16T21:27:51.042Z,23.49
2018-12-16T21:30:20.400Z,23.49
2018-12-16T21:32:49.773Z,23.48
2018-12-16T21:35:19.125Z,23.47
2018-12-16T21:37:48.499Z,23.46
2018-12-16T21:40:17.843Z,23.47
2018-12-16T21:42:47.211Z,23.48
2018-12-16T21:45:16.532Z,23.46
2018-12-16T21:47:45.880Z,23.47
2018-12-16T21:50:15.255Z,23.49
2018-12-16T21:52:44.587Z,23.49
2018-12-16T21:55:13.957Z,23.48
2018-12-16T21:57:44.305Z,23.49
2018-12-16T22:00:13.726Z,23.44
2018-12-16T22:02:44.192Z,23.51
2018-12-16T22:05:14.961Z,23.51
2018-12-16T22:07:45.366Z,23.51
2018-12-16T22:10:15.747Z,23.49
2018-12-16T22:12:45.152Z,23.48
2018-12-16T22:15:14.538Z,23.49
2018-12-16T22:17:43.884Z,23.48
2018-12-16T22:20:13.244Z,23.47
2018-12-16T22:22:42.585Z,23.47
2018-12-16T22:25:12.522Z,23.46
2018-12-16T22:27:41.935Z,23.45
2018-12-16T22:30:11.288Z,23.45
2018-12-16T22:32:40.618Z,23.45
2018-12-16T22:35:09.964Z,23.44
2018-12-16T22:37:39.321Z,23.45
2018-12-16T22:40:08.881Z,23.46
2018-12-16T22:42:38.204Z,23.42
2018-12-16T22:45:08.257Z,23.40
2018-12-16T22:47:37.596Z,23.40
2018-12-16T22:50:07.168Z,23.39
2018-12-16T22:52:36.506Z,23.40
2018-12-16T22:55:06.588Z,23.39
2018-12-16T22:57:35.935Z,23.38
2018-12-16T23:00:08.516Z,23.37
2018-12-16T23:02:39.041Z,23.37
2018-12-16T23:05:08.390Z,23.36
2018-12-16T23:07:37.767Z,23.35
2018-12-16T23:10:07.095Z,23.33
2018-12-16T23:12:36.436Z,23.32
2018-12-16T23:15:06.517Z,23.31
2018-12-16T23:17:35.875Z,23.31
2018-12-16T23:20:10.888Z,23.31
2018-12-16T23:22:40.250Z,23.29
2018-12-16T23:25:09.936Z,23.29
2018-12-16T23:27:39.283Z,23.29
2018-12-16T23:30:08.807Z,23.29
2018-12-16T23:32:38.171Z,23.27
2018-12-16T23:35:07.509Z,23.26
2018-12-16T23:37:36.880Z,23.23
2018-12-16T23:40:06.259Z,23.23
2018-12-16T23:42:35.712Z,23.22
2018-12-16T23:45:05.363Z,23.21
2018-12-16T23:47:34.749Z,23.21
2018-12-16T23:50:04.584Z,23.21
2018-12-16T23:52:33.933Z,23.18
2018-12-16T23:55:03.281Z,23.18
2018-12-16T23:57:32.640Z,23.18
